Time;durP1;ratioP1;P1;durP2;ratioP2;P2;SDS_P1;SDS_P2;PMS_P1;PMS_P2;Temp;Humidity;BMP_temperature;BMP_pressure;BME280_temperature;BME280_humidity;BME280_pressure;Samples;Min_cycle;Max_cycle;Signal;HPM_P1;HPM_P2
2024/01/27 00:01:06;;;;;;;;;;;18.50;49.20;;;;;;1534213;76;721;-77
2024/01/27 00:03:08;;;;;;;;;;;18.50;49.20;;;;;;1534843;76;926;-73
2024/01/27 00:05:10;;;;;;;;;;;18.50;49.20;;;;;;1526827;76;729;-72
2024/01/27 00:07:13;;;;;;;;;;;18.60;49.20;;;;;;1535561;77;894;-71
2024/01/27 00:09:14;;;;;;;;;;;18.60;49.30;;;;;;1533181;76;1268;-73
2024/01/27 00:11:16;;;;;;;;;;;18.50;49.40;;;;;;1499230;77;819;-74
2024/01/27 00:13:18;;;;;;;;;;;18.60;49.40;;;;;;1519743;77;648;-75
2024/01/27 00:15:20;;;;;;;;;;;18.60;49.40;;;;;;1514564;77;726;-73
2024/01/27 00:17:25;;;;;;;;;;;18.60;49.40;;;;;;1515268;77;1938;-75
2024/01/27 00:19:25;;;;;;;;;;;18.50;49.50;;;;;;1518113;77;1712;-75
2024/01/27 00:21:27;;;;;;;;;;;18.50;49.50;;;;;;1520681;77;711;-74
2024/01/27 00:23:29;;;;;;;;;;;17.70;49.10;;;;;;1518004;77;1343;-76
2024/01/27 00:25:31;;;;;;;;;;;18.60;49.60;;;;;;1514327;77;766;-74
2024/01/27 00:27:33;;;;;;;;;;;18.60;49.50;;;;;;1519233;77;700;-73
2024/01/27 00:29:35;;;;;;;;;;;18.50;49.60;;;;;;1519448;77;1137;-74
2024/01/27 00:31:37;;;;;;;;;;;18.50;49.60;;;;;;1520975;77;722;-77
2024/01/27 00:33:39;;;;;;;;;;;18.10;49.40;;;;;;1510367;77;746;-75
2024/01/27 00:35:40;;;;;;;;;;;18.50;49.70;;;;;;1496720;77;665;-76
2024/01/27 00:37:42;;;;;;;;;;;18.50;49.70;;;;;;1504690;78;1937;-75
2024/01/27 00:39:45;;;;;;;;;;;18.60;49.70;;;;;;1514404;77;1107;-76
2024/01/27 00:41:47;;;;;;;;;;;18.50;49.70;;;;;;1523911;76;687;-72
2024/01/27 00:43:49;;;;;;;;;;;18.50;49.70;;;;;;1531755;77;684;-74
2024/01/27 00:45:51;;;;;;;;;;;18.50;49.70;;;;;;1525366;76;705;-75
2024/01/27 00:47:52;;;;;;;;;;;18.50;49.70;;;;;;1532912;76;782;-75
2024/01/27 00:49:54;;;;;;;;;;;18.50;49.70;;;;;;1529605;76;1130;-75
2024/01/27 00:51:56;;;;;;;;;;;18.50;49.70;;;;;;1508627;76;1532;-74
2024/01/27 00:53:58;;;;;;;;;;;18.50;49.70;;;;;;1538930;76;615;-72
2024/01/27 00:56:01;;;;;;;;;;;18.50;49.80;;;;;;1534497;76;592;-74
2024/01/27 00:58:03;;;;;;;;;;;18.50;49.70;;;;;;1534946;76;1931;-74
2024/01/27 01:00:06;;;;;;;;;;;18.50;49.80;;;;;;1542736;76;1107;-72
2024/01/27 01:02:14;;;;;;;;;;;18.50;49.70;;;;;;1528625;76;1943;-73
2024/01/27 01:04:16;;;;;;;;;;;18.50;49.80;;;;;;1536883;76;677;-76
2024/01/27 01:06:18;;;;;;;;;;;18.50;49.80;;;;;;1529123;76;1273;-77
2024/01/27 01:08:20;;;;;;;;;;;18.60;49.90;;;;;;1534221;76;1139;-75
2024/01/27 01:10:22;;;;;;;;;;;18.50;49.80;;;;;;1502716;77;747;-75
2024/01/27 01:12:25;;;;;;;;;;;18.50;49.80;;;;;;1524651;77;685;-75
2024/01/27 01:14:27;;;;;;;;;;;18.50;49.80;;;;;;1520693;77;733;-79
2024/01/27 01:16:29;;;;;;;;;;;18.50;49.90;;;;;;1518615;77;640;-77
2024/01/27 01:18:31;;;;;;;;;;;18.50;49.90;;;;;;1521014;77;1940;-76
2024/01/27 01:20:33;;;;;;;;;;;18.50;49.90;;;;;;1522539;77;1598;-73
2024/01/27 01:22:34;;;;;;;;;;;18.50;49.90;;;;;;1521668;77;728;-74
2024/01/27 01:24:36;;;;;;;;;;;18.50;49.90;;;;;;1511872;77;900;-77
2024/01/27 01:26:39;;;;;;;;;;;18.50;50.00;;;;;;1520567;77;685;-77
2024/01/27 01:28:40;;;;;;;;;;;18.50;49.90;;;;;;1519227;77;1107;-73
2024/01/27 01:30:42;;;;;;;;;;;18.50;50.00;;;;;;1505776;77;775;-74
2024/01/27 01:32:44;;;;;;;;;;;18.50;50.00;;;;;;1522237;77;614;-77
2024/01/27 01:34:46;;;;;;;;;;;18.50;50.00;;;;;;1519773;77;1337;-73
2024/01/27 01:36:48;;;;;;;;;;;18.60;50.00;;;;;;1521290;77;745;-73
2024/01/27 01:38:50;;;;;;;;;;;18.50;50.10;;;;;;1516037;77;1926;-75
2024/01/27 01:40:52;;;;;;;;;;;18.50;50.00;;;;;;1520193;77;767;-76
2024/01/27 01:42:54;;;;;;;;;;;18.50;50.10;;;;;;1518512;77;684;-73
2024/01/27 01:44:56;;;;;;;;;;;18.50;50.10;;;;;;1501538;77;747;-70
2024/01/27 01:46:58;;;;;;;;;;;18.60;50.10;;;;;;1525390;76;666;-75
2024/01/27 01:49:00;;;;;;;;;;;18.50;50.10;;;;;;1525628;76;1554;-73
2024/01/27 01:51:02;;;;;;;;;;;18.50;50.10;;;;;;1533295;76;723;-71
2024/01/27 01:53:04;;;;;;;;;;;18.50;50.20;;;;;;1534462;76;746;-71
2024/01/27 01:55:06;;;;;;;;;;;18.50;50.20;;;;;;1530774;77;622;-74
2024/01/27 01:57:08;;;;;;;;;;;18.50;50.20;;;;;;1524779;77;689;-74
2024/01/27 01:59:10;;;;;;;;;;;18.50;50.20;;;;;;1530652;76;1958;-73
2024/01/27 02:01:12;;;;;;;;;;;18.50;50.20;;;;;;1498363;78;603;-77
2024/01/27 02:03:14;;;;;;;;;;;18.60;50.20;;;;;;1498256;78;1683;-74
2024/01/27 02:05:16;;;;;;;;;;;18.50;50.20;;;;;;1528143;76;662;-73
2024/01/27 02:07:18;;;;;;;;;;;18.60;50.30;;;;;;1531327;76;620;-76
2024/01/27 02:09:20;;;;;;;;;;;18.60;50.30;;;;;;1494955;77;1146;-75
2024/01/27 02:11:22;;;;;;;;;;;18.60;50.20;;;;;;1501801;78;599;-76
2024/01/27 02:13:24;;;;;;;;;;;18.50;50.20;;;;;;1528824;76;713;-75
2024/01/27 02:15:26;;;;;;;;;;;18.60;50.30;;;;;;1525777;76;640;-75
2024/01/27 02:17:28;;;;;;;;;;;18.60;50.20;;;;;;1527750;76;1906;-76
2024/01/27 02:19:30;;;;;;;;;;;18.60;50.30;;;;;;1526490;76;1194;-73
2024/01/27 02:21:32;;;;;;;;;;;18.60;50.30;;;;;;1522876;76;680;-74
2024/01/27 02:23:34;;;;;;;;;;;18.60;50.40;;;;;;1528246;76;727;-73
2024/01/27 02:25:35;;;;;;;;;;;18.50;50.40;;;;;;1527036;76;737;-76
2024/01/27 02:27:37;;;;;;;;;;;18.60;50.40;;;;;;1523592;76;778;-75
2024/01/27 02:29:39;;;;;;;;;;;18.60;50.50;;;;;;1528313;76;1631;-76
2024/01/27 02:31:41;;;;;;;;;;;18.50;50.50;;;;;;1524978;76;769;-75
2024/01/27 02:33:43;;;;;;;;;;;18.60;50.50;;;;;;1528451;76;730;-76
2024/01/27 02:35:45;;;;;;;;;;;18.60;50.50;;;;;;1531302;76;692;-74
2024/01/27 02:37:47;;;;;;;;;;;18.60;50.50;;;;;;1529322;76;1944;-74
2024/01/27 02:39:49;;;;;;;;;;;18.60;50.50;;;;;;1533159;76;1139;-72
2024/01/27 02:41:51;;;;;;;;;;;18.60;50.60;;;;;;1525420;76;763;-73
2024/01/27 02:43:53;;;;;;;;;;;18.60;50.60;;;;;;1529358;76;1611;-74
2024/01/27 02:45:55;;;;;;;;;;;18.60;50.50;;;;;;1528779;76;691;-74
2024/01/27 02:47:57;;;;;;;;;;;18.60;50.50;;;;;;1534187;76;745;-71
2024/01/27 02:49:59;;;;;;;;;;;18.60;50.60;;;;;;1513137;77;1120;-72
2024/01/27 02:52:01;;;;;;;;;;;18.60;50.60;;;;;;1505202;77;800;-74
2024/01/27 02:54:02;;;;;;;;;;;18.60;50.60;;;;;;1501804;77;734;-71
2024/01/27 02:56:06;;;;;;;;;;;18.60;50.50;;;;;;1514689;77;700;-70
2024/01/27 02:58:08;;;;;;;;;;;18.60;50.60;;;;;;1534292;76;1933;-77
2024/01/27 03:00:10;;;;;;;;;;;18.50;50.50;;;;;;1533243;76;1091;-76
2024/01/27 03:02:12;;;;;;;;;;;18.50;50.60;;;;;;1502986;78;789;-76
2024/01/27 03:04:14;;;;;;;;;;;18.60;50.70;;;;;;1534265;76;649;-76
2024/01/27 03:06:16;;;;;;;;;;;18.60;50.70;;;;;;1504796;77;649;-73
2024/01/27 03:08:17;;;;;;;;;;;18.60;50.70;;;;;;1521895;76;757;-75
2024/01/27 03:10:19;;;;;;;;;;;18.60;50.80;;;;;;1503730;77;715;-75
2024/01/27 03:12:22;;;;;;;;;;;18.60;50.80;;;;;;1509277;77;1307;-77
2024/01/27 03:14:25;;;;;;;;;;;18.60;50.90;;;;;;1498455;78;632;-76
2024/01/27 03:16:27;;;;;;;;;;;18.60;50.90;;;;;;1506933;77;623;-74
2024/01/27 03:18:28;;;;;;;;;;;18.60;51.00;;;;;;1504598;78;1922;-74
2024/01/27 03:20:35;;;;;;;;;;;18.60;50.90;;;;;;1503864;77;773;-71
2024/01/27 03:22:34;;;;;;;;;;;18.60;51.00;;;;;;1523660;77;1194;-75
2024/01/27 03:24:36;;;;;;;;;;;18.60;51.00;;;;;;1538527;76;672;-73
2024/01/27 03:26:38;;;;;;;;;;;18.60;50.90;;;;;;1530894;77;1570;-74
2024/01/27 03:28:40;;;;;;;;;;;18.60;51.00;;;;;;1533549;77;1099;-77
2024/01/27 03:30:42;;;;;;;;;;;18.60;51.00;;;;;;1530533;77;738;-73
2024/01/27 03:32:44;;;;;;;;;;;18.60;51.10;;;;;;1500140;77;630;-74
2024/01/27 03:34:45;;;;;;;;;;;18.70;51.20;;;;;;1513312;77;774;-74
2024/01/27 03:36:50;;;;;;;;;;;18.60;51.10;;;;;;1509676;77;773;-70
2024/01/27 03:38:52;;;;;;;;;;;18.60;51.00;;;;;;1505431;78;1929;-74
2024/01/27 03:40:54;;;;;;;;;;;18.60;51.10;;;;;;1503466;77;1539;-73
2024/01/27 03:42:56;;;;;;;;;;;18.60;51.10;;;;;;1506779;78;741;-72
2024/01/27 03:44:58;;;;;;;;;;;18.60;51.20;;;;;;1502885;77;694;-75
2024/01/27 03:47:00;;;;;;;;;;;18.60;51.20;;;;;;1527918;76;767;-74
2024/01/27 03:49:02;;;;;;;;;;;18.60;51.20;;;;;;1532956;77;1088;-72
2024/01/27 03:51:04;;;;;;;;;;;18.60;51.20;;;;;;1534122;77;607;-73
2024/01/27 03:53:05;;;;;;;;;;;18.60;51.20;;;;;;1533951;76;780;-73
2024/01/27 03:55:07;;;;;;;;;;;18.60;51.20;;;;;;1535708;76;1448;-73
2024/01/27 03:57:09;;;;;;;;;;;18.60;51.10;;;;;;1502422;77;792;-74
2024/01/27 03:59:11;;;;;;;;;;;18.60;51.20;;;;;;1518591;77;1919;-74
2024/01/27 04:01:13;;;;;;;;;;;18.70;51.30;;;;;;1526319;76;727;-75
2024/01/27 04:03:15;;;;;;;;;;;18.60;51.20;;;;;;1530405;77;753;-73
2024/01/27 04:05:17;;;;;;;;;;;18.60;51.20;;;;;;1528795;76;713;-74
2024/01/27 04:07:19;;;;;;;;;;;18.60;51.10;;;;;;1530009;76;645;-75
2024/01/27 04:09:20;;;;;;;;;;;18.60;51.20;;;;;;1501007;77;1542;-76
2024/01/27 04:11:22;;;;;;;;;;;18.60;51.20;;;;;;1514825;77;733;-76
2024/01/27 04:13:24;;;;;;;;;;;18.60;51.20;;;;;;1521185;77;609;-75
2024/01/27 04:15:26;;;;;;;;;;;18.60;51.20;;;;;;1521687;77;754;-75
2024/01/27 04:17:29;;;;;;;;;;;18.60;51.20;;;;;;1525072;77;716;-74
2024/01/27 04:19:31;;;;;;;;;;;18.70;51.30;;;;;;1516952;77;1929;-74
2024/01/27 04:21:33;;;;;;;;;;;18.60;51.20;;;;;;1521899;77;739;-74
2024/01/27 04:23:35;;;;;;;;;;;18.60;51.10;;;;;;1521546;77;1372;-75
2024/01/27 04:25:37;;;;;;;;;;;18.60;51.20;;;;;;1527050;77;733;-74
2024/01/27 04:27:43;;;;;;;;;;;18.60;51.20;;;;;;1517833;77;742;-74
2024/01/27 04:29:42;;;;;;;;;;;18.60;51.20;;;;;;1532117;76;1143;-74
2024/01/27 04:31:44;;;;;;;;;;;18.70;51.30;;;;;;1533023;77;629;-74
2024/01/27 04:33:46;;;;;;;;;;;18.60;51.20;;;;;;1525376;76;609;-73
2024/01/27 04:35:48;;;;;;;;;;;18.60;51.10;;;;;;1528249;76;624;-72
2024/01/27 04:37:51;;;;;;;;;;;18.60;51.10;;;;;;1532644;77;1397;-74
2024/01/27 04:39:52;;;;;;;;;;;18.60;51.10;;;;;;1520763;76;1928;-72
2024/01/27 04:41:54;;;;;;;;;;;18.60;51.10;;;;;;1529253;76;692;-72
2024/01/27 04:43:58;;;;;;;;;;;18.60;51.10;;;;;;1530180;76;671;-77
2024/01/27 04:46:00;;;;;;;;;;;18.60;51.10;;;;;;1502521;77;717;-73
2024/01/27 04:48:01;;;;;;;;;;;18.60;51.10;;;;;;1501245;78;625;-74
2024/01/27 04:50:04;;;;;;;;;;;18.60;51.10;;;;;;1507070;77;1166;-74
2024/01/27 04:52:05;;;;;;;;;;;18.70;51.30;;;;;;1507722;77;1626;-75
2024/01/27 04:54:08;;;;;;;;;;;18.60;51.20;;;;;;1504268;77;738;-73
2024/01/27 04:56:12;;;;;;;;;;;18.70;51.40;;;;;;1519456;77;684;-76
2024/01/27 04:58:14;;;;;;;;;;;18.60;51.30;;;;;;1508103;77;1148;-75
2024/01/27 05:00:16;;;;;;;;;;;18.60;51.40;;;;;;1517772;77;1966;-77
2024/01/27 05:02:18;;;;;;;;;;;18.70;51.50;;;;;;1521630;77;738;-72
2024/01/27 05:04:20;;;;;;;;;;;18.60;51.40;;;;;;1521750;77;1308;-76
2024/01/27 05:06:22;;;;;;;;;;;18.60;51.30;;;;;;1521464;77;656;-72
2024/01/27 05:08:24;;;;;;;;;;;18.70;51.60;;;;;;1518576;77;1132;-75
2024/01/27 05:10:26;;;;;;;;;;;18.70;51.60;;;;;;1512481;77;632;-74
2024/01/27 05:12:28;;;;;;;;;;;18.70;51.50;;;;;;1520120;77;676;-76
2024/01/27 05:14:30;;;;;;;;;;;18.60;51.40;;;;;;1519718;77;601;-75
2024/01/27 05:16:33;;;;;;;;;;;18.60;51.50;;;;;;1520233;77;623;-72
2024/01/27 05:18:35;;;;;;;;;;;18.70;51.60;;;;;;1519179;77;1929;-77
2024/01/27 05:20:37;;;;;;;;;;;18.70;51.50;;;;;;1512614;77;719;-73
2024/01/27 05:22:39;;;;;;;;;;;18.60;51.50;;;;;;1534675;76;744;-74
2024/01/27 05:24:41;;;;;;;;;;;18.60;51.50;;;;;;1502835;78;843;-72
2024/01/27 05:26:43;;;;;;;;;;;18.60;51.40;;;;;;1517610;76;773;-72
2024/01/27 05:28:44;;;;;;;;;;;18.70;51.50;;;;;;1514867;76;1125;-73
2024/01/27 05:30:46;;;;;;;;;;;18.60;51.50;;;;;;1527926;76;969;-75
2024/01/27 05:32:48;;;;;;;;;;;18.60;51.50;;;;;;1509901;77;1520;-74
2024/01/27 05:34:50;;;;;;;;;;;18.60;51.50;;;;;;1536522;75;676;-76
2024/01/27 05:36:52;;;;;;;;;;;18.70;51.60;;;;;;1504595;77;599;-71
2024/01/27 05:38:54;;;;;;;;;;;18.70;51.60;;;;;;1522803;76;1944;-74
2024/01/27 05:40:56;;;;;;;;;;;18.60;51.40;;;;;;1528968;76;750;-73
2024/01/27 05:42:57;;;;;;;;;;;18.60;51.50;;;;;;1529760;76;756;-75
2024/01/27 05:44:59;;;;;;;;;;;18.60;51.60;;;;;;1511489;77;684;-73
2024/01/27 05:47:01;;;;;;;;;;;18.60;51.60;;;;;;1505535;78;1326;-75
2024/01/27 05:49:03;;;;;;;;;;;18.70;51.60;;;;;;1536891;76;1086;-74
2024/01/27 05:51:05;;;;;;;;;;;18.70;51.70;;;;;;1528091;77;745;-72
2024/01/27 05:53:07;;;;;;;;;;;18.60;51.50;;;;;;1532263;76;779;-75
2024/01/27 05:55:09;;;;;;;;;;;18.60;51.50;;;;;;1529401;76;529;-76
2024/01/27 05:57:11;;;;;;;;;;;18.70;51.70;;;;;;1524379;76;680;-74
2024/01/27 05:59:13;;;;;;;;;;;18.70;51.60;;;;;;1535038;76;1935;-76
2024/01/27 06:01:15;;;;;;;;;;;18.70;51.70;;;;;;1529582;76;1568;-73
2024/01/27 06:03:17;;;;;;;;;;;18.70;51.60;;;;;;1504673;78;729;-76
2024/01/27 06:05:19;;;;;;;;;;;18.70;51.60;;;;;;1487478;77;693;-74
2024/01/27 06:07:21;;;;;;;;;;;18.70;51.60;;;;;;1506109;77;725;-76
2024/01/27 06:09:23;;;;;;;;;;;18.70;51.60;;;;;;1514337;77;1113;-75
2024/01/27 06:11:25;;;;;;;;;;;18.80;51.60;;;;;;1508961;77;799;-74
2024/01/27 06:13:27;;;;;;;;;;;18.70;51.60;;;;;;1517044;77;749;-73
2024/01/27 06:15:28;;;;;;;;;;;18.70;51.60;;;;;;1517192;77;1585;-76
2024/01/27 06:17:30;;;;;;;;;;;18.80;51.60;;;;;;1513003;77;743;-72
2024/01/27 06:19:32;;;;;;;;;;;18.70;51.60;;;;;;1515758;77;1932;-74
2024/01/27 06:21:34;;;;;;;;;;;18.80;51.40;;;;;;1521200;77;788;-75
2024/01/27 06:23:37;;;;;;;;;;;18.80;51.20;;;;;;1511608;77;752;-73
2024/01/27 06:25:38;;;;;;;;;;;18.80;51.30;;;;;;1520353;77;715;-74
2024/01/27 06:27:43;;;;;;;;;;;18.70;51.30;;;;;;1520552;77;741;-72
2024/01/27 06:29:45;;;;;;;;;;;18.80;51.30;;;;;;1520846;77;1299;-73
2024/01/27 06:31:47;;;;;;;;;;;18.80;51.10;;;;;;1519190;77;760;-76
2024/01/27 06:33:49;;;;;;;;;;;18.80;51.10;;;;;;1521449;77;750;-74
2024/01/27 06:35:51;;;;;;;;;;;18.80;51.20;;;;;;1520913;77;717;-76
2024/01/27 06:37:52;;;;;;;;;;;18.80;51.10;;;;;;1517731;77;746;-75
2024/01/27 06:39:54;;;;;;;;;;;18.90;51.20;;;;;;1520362;77;1968;-75
2024/01/27 06:41:56;;;;;;;;;;;18.90;51.20;;;;;;1525759;77;696;-77
2024/01/27 06:43:58;;;;;;;;;;;18.80;51.10;;;;;;1515017;77;1535;-72
2024/01/27 06:46:00;;;;;;;;;;;18.90;51.30;;;;;;1514853;77;660;-74
2024/01/27 06:48:02;;;;;;;;;;;18.80;51.00;;;;;;1521185;77;716;-73
2024/01/27 06:50:04;;;;;;;;;;;18.80;51.00;;;;;;1520284;77;1119;-72
2024/01/27 06:52:06;;;;;;;;;;;18.90;51.00;;;;;;1526664;76;703;-72
2024/01/27 06:54:08;;;;;;;;;;;18.90;51.00;;;;;;1517931;76;849;-74
2024/01/27 06:56:10;;;;;;;;;;;18.80;50.80;;;;;;1521907;77;733;-74
2024/01/27 06:58:12;;;;;;;;;;;18.80;50.80;;;;;;1502647;77;1224;-74
2024/01/27 07:00:17;;;;;;;;;;;18.80;50.80;;;;;;1500611;77;1937;-74
2024/01/27 07:02:21;;;;;;;;;;;18.90;50.90;;;;;;1532490;76;605;-75
2024/01/27 07:04:23;;;;;;;;;;;18.90;51.00;;;;;;1532538;76;1183;-77
2024/01/27 07:06:25;;;;;;;;;;;18.90;50.90;;;;;;1528197;76;717;-76
2024/01/27 07:08:27;;;;;;;;;;;19.00;50.90;;;;;;1509471;77;1151;-77
2024/01/27 07:10:29;;;;;;;;;;;19.00;50.90;;;;;;1499459;77;920;-76
2024/01/27 07:12:31;;;;;;;;;;;18.90;50.70;;;;;;1504107;78;1522;-74
2024/01/27 07:14:33;;;;;;;;;;;18.90;51.00;;;;;;1506760;77;741;-75
2024/01/27 07:16:35;;;;;;;;;;;18.90;50.90;;;;;;1502033;78;720;-77
2024/01/27 07:18:37;;;;;;;;;;;19.00;50.80;;;;;;1515405;76;1192;-74
2024/01/27 07:20:39;;;;;;;;;;;18.90;50.60;;;;;;1520654;76;1905;-77
2024/01/27 07:22:42;;;;;;;;;;;18.90;50.50;;;;;;1531617;76;802;-74
2024/01/27 07:24:43;;;;;;;;;;;19.00;50.50;;;;;;1521348;76;794;-75
2024/01/27 07:26:45;;;;;;;;;;;19.00;50.50;;;;;;1531493;76;1497;-74
2024/01/27 07:28:47;;;;;;;;;;;19.00;50.50;;;;;;1514627;77;1100;-76
2024/01/27 07:30:49;;;;;;;;;;;19.00;50.50;;;;;;1530176;76;704;-76
2024/01/27 07:32:51;;;;;;;;;;;19.00;50.60;;;;;;1527966;76;713;-75
2024/01/27 07:34:53;;;;;;;;;;;19.00;50.60;;;;;;1524475;76;649;-74
2024/01/27 07:36:55;;;;;;;;;;;19.00;50.50;;;;;;1522964;76;666;-76
2024/01/27 07:38:57;;;;;;;;;;;19.00;50.60;;;;;;1525438;76;1308;-77
2024/01/27 07:40:59;;;;;;;;;;;19.00;50.50;;;;;;1523367;76;1934;-78
2024/01/27 07:43:01;;;;;;;;;;;19.00;50.40;;;;;;1524469;76;708;-78
2024/01/27 07:45:03;;;;;;;;;;;19.10;50.40;;;;;;1527758;76;698;-76
2024/01/27 07:47:05;;;;;;;;;;;19.00;50.50;;;;;;1531469;76;768;-75
2024/01/27 07:49:07;;;;;;;;;;;19.00;50.80;;;;;;1505095;77;1172;-71
2024/01/27 07:51:09;;;;;;;;;;;19.00;50.70;;;;;;1517272;77;759;-72
2024/01/27 07:53:11;;;;;;;;;;;19.10;51.10;;;;;;1513535;77;1543;-74
2024/01/27 07:55:12;;;;;;;;;;;19.20;51.30;;;;;;1519116;77;869;-68
2024/01/27 07:57:14;;;;;;;;;;;19.20;51.00;;;;;;1514498;77;732;-73
2024/01/27 07:59:16;;;;;;;;;;;19.30;50.90;;;;;;1511919;77;1156;-81
2024/01/27 08:01:18;;;;;;;;;;;19.30;50.90;;;;;;1516218;77;1946;-75
2024/01/27 08:03:20;;;;;;;;;;;19.30;50.80;;;;;;1516249;76;686;-73
2024/01/27 08:05:22;;;;;;;;;;;19.30;50.80;;;;;;1513434;77;671;-74
2024/01/27 08:07:24;;;;;;;;;;;19.30;50.90;;;;;;1515274;77;1591;-77
2024/01/27 08:09:26;;;;;;;;;;;19.20;50.70;;;;;;1515582;77;1153;-76
2024/01/27 08:11:28;;;;;;;;;;;19.20;50.70;;;;;;1511555;77;737;-76
2024/01/27 08:13:30;;;;;;;;;;;19.20;50.70;;;;;;1519911;77;754;-74
2024/01/27 08:15:32;;;;;;;;;;;19.20;50.60;;;;;;1520087;77;624;-75
2024/01/27 08:17:34;;;;;;;;;;;19.20;50.50;;;;;;1518265;77;787;-76
2024/01/27 08:19:35;;;;;;;;;;;19.20;50.50;;;;;;1519889;77;1186;-74
2024/01/27 08:21:37;;;;;;;;;;;19.20;50.50;;;;;;1520993;77;1513;-74
2024/01/27 08:23:39;;;;;;;;;;;19.30;50.50;;;;;;1519041;77;816;-76
2024/01/27 08:25:44;;;;;;;;;;;19.20;50.40;;;;;;1517870;77;745;-64
2024/01/27 08:27:45;;;;;;;;;;;19.20;50.60;;;;;;1517080;77;1496;-73
2024/01/27 08:29:47;;;;;;;;;;;19.20;50.60;;;;;;1519186;77;1171;-72
2024/01/27 08:31:49;;;;;;;;;;;19.20;50.90;;;;;;1515866;77;755;-75
2024/01/27 08:33:50;;;;;;;;;;;19.20;50.70;;;;;;1517445;77;774;-73
2024/01/27 08:35:52;;;;;;;;;;;19.40;50.60;;;;;;1514596;77;1365;-74
2024/01/27 08:37:54;;;;;;;;;;;19.30;50.00;;;;;;1515146;77;768;-71
2024/01/27 08:39:56;;;;;;;;;;;19.30;49.50;;;;;;1519036;77;1952;-74
2024/01/27 08:41:58;;;;;;;;;;;19.20;48.90;;;;;;1515103;77;693;-69
2024/01/27 08:44:00;;;;;;;;;;;19.20;48.40;;;;;;1518033;77;757;-73
2024/01/27 08:46:02;;;;;;;;;;;19.20;48.20;;;;;;1517229;77;714;-70
2024/01/27 08:48:04;;;;;;;;;;;19.30;48.00;;;;;;1509209;77;694;-70
2024/01/27 08:50:06;;;;;;;;;;;19.20;47.50;;;;;;1510271;77;1336;-72
2024/01/27 08:52:08;;;;;;;;;;;19.20;47.10;;;;;;1522593;77;630;-69
2024/01/27 08:54:10;;;;;;;;;;;19.20;46.70;;;;;;1506116;77;747;-70
2024/01/27 08:56:13;;;;;;;;;;;19.10;46.70;;;;;;1503676;77;785;-73
2024/01/27 08:58:15;;;;;;;;;;;19.20;46.70;;;;;;1510028;77;747;-73
2024/01/27 09:00:17;;;;;;;;;;;19.10;46.30;;;;;;1515273;77;1960;-72
2024/01/27 09:02:19;;;;;;;;;;;19.10;46.20;;;;;;1519749;77;1271;-70
2024/01/27 09:04:21;;;;;;;;;;;19.10;46.00;;;;;;1517746;77;1491;-74
2024/01/27 09:06:23;;;;;;;;;;;19.10;45.80;;;;;;1513486;77;1006;-71
2024/01/27 09:08:25;;;;;;;;;;;19.10;45.40;;;;;;1520846;77;1147;-71
2024/01/27 09:10:28;;;;;;;;;;;19.00;44.90;;;;;;1516217;77;1109;-72
2024/01/27 09:12:30;;;;;;;;;;;19.00;44.40;;;;;;1519849;76;1096;-73
2024/01/27 09:14:33;;;;;;;;;;;19.00;43.60;;;;;;1527619;76;1118;-70
2024/01/27 09:16:35;;;;;;;;;;;19.00;44.20;;;;;;1498346;77;1112;-72
2024/01/27 09:18:37;;;;;;;;;;;19.00;43.80;;;;;;1519565;77;1481;-72
2024/01/27 09:20:39;;;;;;;;;;;19.00;43.90;;;;;;1525109;76;1950;-72
2024/01/27 09:22:41;;;;;;;;;;;19.00;43.90;;;;;;1500016;77;1194;-72
2024/01/27 09:24:43;;;;;;;;;;;19.00;43.70;;;;;;1511356;77;1150;-70
2024/01/27 09:26:45;;;;;;;;;;;19.00;43.60;;;;;;1507956;77;1120;-72
2024/01/27 09:28:53;;;;;;;;;;;18.90;43.40;;;;;;1521686;76;1205;-73
2024/01/27 09:30:50;;;;;;;;;;;18.90;43.00;;;;;;1502843;78;1692;-70
2024/01/27 09:32:52;;;;;;;;;;;18.90;43.40;;;;;;1511463;77;1458;-69
2024/01/27 09:34:54;;;;;;;;;;;18.90;43.70;;;;;;1515941;76;1190;-69
2024/01/27 09:36:56;;;;;;;;;;;19.00;43.70;;;;;;1505041;77;1192;-70
2024/01/27 09:38:59;;;;;;;;;;;18.90;43.70;;;;;;1492786;77;1143;-73
2024/01/27 09:41:01;;;;;;;;;;;19.00;43.60;;;;;;1523486;76;1920;-70
2024/01/27 09:43:03;;;;;;;;;;;18.80;43.60;;;;;;1522319;76;1144;-71
2024/01/27 09:45:05;;;;;;;;;;;18.90;43.20;;;;;;1522427;76;1148;-71
2024/01/27 09:47:06;;;;;;;;;;;18.90;43.70;;;;;;1524741;76;1598;-72
2024/01/27 09:49:08;;;;;;;;;;;18.90;43.60;;;;;;1532420;76;1140;-72
2024/01/27 09:51:11;;;;;;;;;;;18.90;43.40;;;;;;1506614;77;1073;-72
2024/01/27 09:53:12;;;;;;;;;;;18.90;43.30;;;;;;1528865;76;1118;-69
2024/01/27 09:55:14;;;;;;;;;;;18.90;43.30;;;;;;1498575;78;1119;-72
2024/01/27 09:57:18;;;;;;;;;;;18.80;43.10;;;;;;1503423;77;1169;-73
2024/01/27 09:59:20;;;;;;;;;;;18.80;43.40;;;;;;1504472;77;2105;-73
2024/01/27 10:01:22;;;;;;;;;;;18.80;43.40;;;;;;1532331;76;1931;-71
2024/01/27 10:03:27;;;;;;;;;;;18.90;43.40;;;;;;1530893;76;1095;-71
2024/01/27 10:05:29;;;;;;;;;;;18.80;42.90;;;;;;1508499;77;1470;-73
2024/01/27 10:07:31;;;;;;;;;;;18.80;42.80;;;;;;1510876;77;1207;-73
2024/01/27 10:09:33;;;;;;;;;;;18.90;42.60;;;;;;1507690;77;1135;-71
2024/01/27 10:11:34;;;;;;;;;;;18.80;42.70;;;;;;1534109;76;1113;-71
2024/01/27 10:13:36;;;;;;;;;;;18.80;43.10;;;;;;1531140;76;1104;-72
2024/01/27 10:15:38;;;;;;;;;;;18.80;43.10;;;;;;1525274;76;1302;-71
2024/01/27 10:17:40;;;;;;;;;;;18.90;42.50;;;;;;1522279;76;1120;-72
2024/01/27 10:19:42;;;;;;;;;;;18.80;42.50;;;;;;1541517;76;1143;-70
2024/01/27 10:21:45;;;;;;;;;;;18.80;42.20;;;;;;1524514;76;1951;-73
2024/01/27 10:23:47;;;;;;;;;;;18.80;42.00;;;;;;1527156;76;1489;-73
2024/01/27 10:25:49;;;;;;;;;;;18.80;41.70;;;;;;1529818;76;1133;-69
2024/01/27 10:27:52;;;;;;;;;;;18.80;41.30;;;;;;1514606;76;1164;-73
2024/01/27 10:29:55;;;;;;;;;;;18.80;41.80;;;;;;1533207;76;1825;-70
2024/01/27 10:31:58;;;;;;;;;;;18.80;41.50;;;;;;1497375;77;1160;-69
2024/01/27 10:34:14;;;;;;;;;;;18.80;41.50;;;;;;1500421;77;1439;-73
2024/01/27 10:36:10;;;;;;;;;;;18.80;41.10;;;;;;1513860;77;1594;-72
2024/01/27 10:38:12;;;;;;;;;;;18.80;41.00;;;;;;1499148;78;718;-74
2024/01/27 10:40:16;;;;;;;;;;;18.80;41.00;;;;;;1502848;78;1116;-71
2024/01/27 10:42:18;;;;;;;;;;;18.70;41.00;;;;;;1532631;76;1879;-73
2024/01/27 10:44:20;;;;;;;;;;;18.70;41.00;;;;;;1507510;77;1695;-72
2024/01/27 10:46:22;;;;;;;;;;;18.70;41.00;;;;;;1506304;77;709;-69
2024/01/27 10:48:24;;;;;;;;;;;18.70;40.90;;;;;;1513222;77;1104;-72
2024/01/27 10:50:26;;;;;;;;;;;18.70;41.00;;;;;;1509096;77;763;-73
2024/01/27 10:52:29;;;;;;;;;;;18.70;40.90;;;;;;1504486;77;709;-75
2024/01/27 10:54:31;;;;;;;;;;;18.70;40.60;;;;;;1521812;76;1034;-76
2024/01/27 10:56:33;;;;;;;;;;;18.70;40.70;;;;;;1519312;76;1481;-75
2024/01/27 10:58:40;;;;;;;;;;;18.60;41.00;;;;;;1526106;76;1162;-73
2024/01/27 11:00:39;;;;;;;;;;;18.60;40.70;;;;;;1525745;76;1916;-76
2024/01/27 11:02:42;;;;;;;;;;;18.70;40.70;;;;;;1527220;76;783;-74
2024/01/27 11:04:44;;;;;;;;;;;18.70;40.70;;;;;;1520567;76;770;-77
2024/01/27 11:06:46;;;;;;;;;;;18.70;40.70;;;;;;1530093;76;659;-76
2024/01/27 11:08:48;;;;;;;;;;;18.70;40.70;;;;;;1500119;77;1153;-74
2024/01/27 11:10:49;;;;;;;;;;;18.70;40.70;;;;;;1515533;77;1543;-73
2024/01/27 11:12:52;;;;;;;;;;;18.70;41.10;;;;;;1519903;77;727;-74
2024/01/27 11:14:54;;;;;;;;;;;18.60;40.70;;;;;;1531737;76;600;-74
2024/01/27 11:16:56;;;;;;;;;;;18.70;40.60;;;;;;1520114;76;712;-71
2024/01/27 11:18:58;;;;;;;;;;;18.70;40.50;;;;;;1527576;76;1141;-74
2024/01/27 11:21:00;;;;;;;;;;;18.60;40.20;;;;;;1500750;77;1934;-72
2024/01/27 11:23:04;;;;;;;;;;;18.60;40.20;;;;;;1514521;77;731;-75
2024/01/27 11:25:11;;;;;;;;;;;18.60;40.00;;;;;;1507945;77;1610;-73
2024/01/27 11:27:13;;;;;;;;;;;18.60;40.50;;;;;;1513400;77;1640;-75
2024/01/27 11:29:21;;;;;;;;;;;18.60;40.50;;;;;;1479530;78;1143;-76
2024/01/27 11:31:23;;;;;;;;;;;18.60;40.20;;;;;;1518405;77;620;-75
2024/01/27 11:33:25;;;;;;;;;;;18.60;40.00;;;;;;1517013;77;717;-76
2024/01/27 11:35:27;;;;;;;;;;;18.60;40.10;;;;;;1515670;77;721;-76
2024/01/27 11:37:30;;;;;;;;;;;18.60;40.20;;;;;;1520904;77;754;-76
2024/01/27 11:39:32;;;;;;;;;;;18.60;41.30;;;;;;1510175;77;1523;-75
2024/01/27 11:41:34;;;;;;;;;;;18.60;41.50;;;;;;1507857;77;1934;-74
2024/01/27 11:43:36;;;;;;;;;;;18.70;42.40;;;;;;1519172;77;779;-75
2024/01/27 11:45:38;;;;;;;;;;;18.70;42.60;;;;;;1519744;77;568;-75
2024/01/27 11:47:40;;;;;;;;;;;18.60;43.10;;;;;;1515067;77;686;-76
2024/01/27 11:49:42;;;;;;;;;;;18.70;43.60;;;;;;1475208;78;1130;-74
2024/01/27 11:51:44;;;;;;;;;;;18.70;43.50;;;;;;1524225;76;696;-76
2024/01/27 11:53:47;;;;;;;;;;;18.70;40.70;;;;;;1526719;76;1558;-72
2024/01/27 11:55:50;;;;;;;;;;;18.70;41.90;;;;;;1527275;76;668;-75
2024/01/27 11:57:52;;;;;;;;;;;18.60;42.50;;;;;;1528085;76;1839;-73
2024/01/27 11:59:54;;;;;;;;;;;18.50;42.80;;;;;;1526723;76;1160;-75
2024/01/27 12:01:56;;;;;;;;;;;18.50;43.40;;;;;;1503036;78;1927;-76
2024/01/27 12:03:58;;;;;;;;;;;18.60;43.60;;;;;;1504676;77;679;-74
2024/01/27 12:06:00;;;;;;;;;;;18.60;43.90;;;;;;1504928;77;600;-71